Time;durP1;ratioP1;P1;durP2;ratioP2;P2;SDS_P1;SDS_P2;PMS_P1;PMS_P2;Temp;Humidity;BMP_temperature;BMP_pressure;BME280_temperature;BME280_humidity;BME280_pressure;Samples;Min_cycle;Max_cycle;Signal;HPM_P1;HPM_P2
2022/02/04 00:03:44;;;;;;;9.55;5.55;;;7.70;91.70;;;;;;6178644;23;20032;-72
2022/02/04 00:23:37;;;;;;;11.98;7.05;;;7.70;91.60;;;;;;6182692;23;20096;-73
2022/02/04 00:26:13;;;;;;;11.35;6.93;;;7.70;91.60;;;;;;6180744;23;20057;-73
2022/02/04 00:28:50;;;;;;;11.43;6.88;;;7.70;91.60;;;;;;6182747;23;20001;-73
2022/02/04 00:31:28;;;;;;;10.43;6.18;;;7.70;91.60;;;;;;6155998;23;20303;-72
2022/02/04 00:34:00;;;;;;;10.85;7.03;;;7.70;91.60;;;;;;6180024;23;20001;-73
2022/02/04 00:36:35;;;;;;;;;;;7.80;91.60;;;;;;6183804;23;20041;-72
2022/02/04 00:39:07;;;;;;;9.80;5.95;;;7.80;91.60;;;;;;6182071;23;19912;-72
2022/02/04 00:41:36;;;;;;;10.23;6.47;;;7.80;91.80;;;;;;6183859;23;20029;-72
2022/02/04 00:44:03;;;;;;;11.52;6.22;;;7.70;91.50;;;;;;6184107;23;20021;-73
2022/02/04 00:49:18;;;;;;;8.93;5.47;;;7.80;91.50;;;;;;6184414;23;20174;-73
2022/02/04 00:54:29;;;;;;;8.30;4.72;;;7.80;91.50;;;;;;6184251;23;20350;-73
2022/02/04 00:57:08;;;;;;;8.98;5.10;;;7.80;91.50;;;;;;6184379;23;20001;-72
2022/02/04 01:26:18;;;;;;;8.27;4.75;;;7.70;91.50;;;;;;6179790;23;20009;-73
2022/02/04 01:28:47;;;;;;;8.73;4.75;;;7.80;91.60;;;;;;6153179;23;20010;-73
2022/02/04 01:31:16;;;;;;;8.95;4.78;;;7.80;91.60;;;;;;6181119;23;20001;-72
2022/02/04 01:33:44;;;;;;;7.53;4.25;;;7.70;91.60;;;;;;6184230;23;20005;-73
2022/02/04 01:36:10;;;;;;;6.97;4.25;;;7.80;91.60;;;;;;6184399;23;20036;-72
2022/02/04 01:38:35;;;;;;;6.50;3.83;;;7.70;91.60;;;;;;6180856;23;20009;-72
2022/02/04 01:41:01;;;;;;;7.70;3.95;;;7.80;91.70;;;;;;6184116;23;20008;-72
2022/02/04 01:43:28;;;;;;;7.57;4.35;;;7.70;91.60;;;;;;6184371;23;20084;-73
2022/02/04 01:45:56;;;;;;;7.60;4.38;;;7.70;91.60;;;;;;6156801;23;20012;-72
2022/02/04 01:48:22;;;;;;;7.47;4.22;;;7.80;91.60;;;;;;6184719;23;20120;-73
2022/02/04 01:50:50;;;;;;;7.13;4.00;;;7.80;91.60;;;;;;6183984;23;20401;-73
2022/02/04 01:53:21;;;;;;;6.53;3.70;;;7.80;91.60;;;;;;6184008;23;19997;-72
2022/02/04 01:55:49;;;;;;;6.45;3.60;;;7.80;91.60;;;;;;6184070;23;20307;-73
2022/02/04 01:58:15;;;;;;;6.55;3.90;;;7.80;91.60;;;;;;6182354;23;20393;-72
2022/02/04 02:00:41;;;;;;;7.32;3.83;;;7.80;91.60;;;;;;6181979;23;20006;-73
2022/02/04 02:03:08;;;;;;;8.05;4.22;;;7.80;91.60;;;;;;6184528;23;20027;-73
2022/02/04 02:05:35;;;;;;;6.40;3.92;;;7.80;91.60;;;;;;6183931;23;20088;-72
2022/02/04 02:08:10;;;;;;;6.07;3.30;;;7.80;91.60;;;;;;6184140;23;20005;-73
2022/02/04 02:10:36;;;;;;;7.75;4.15;;;7.70;91.60;;;;;;6184485;23;20001;-73
2022/02/04 02:34:53;;;;;;;6.07;3.80;;;7.70;91.60;;;;;;6183843;23;20013;-73
2022/02/04 02:40:47;;;;;;;6.35;3.85;;;7.70;91.50;;;;;;6182558;23;20009;-72
2022/02/04 02:45:51;;;;;;;7.03;4.15;;;7.70;91.50;;;;;;6183702;23;20005;-73
2022/02/04 02:48:38;;;;;;;7.57;4.25;;;7.70;91.50;;;;;;6183394;23;20027;-73
2022/02/04 02:53:53;;;;;;;7.45;4.35;;;7.70;91.50;;;;;;6183551;23;20016;-72
2022/02/04 02:56:52;;;;;;;7.10;4.05;;;7.80;91.50;;;;;;6179486;23;20369;-73
2022/02/04 02:59:09;;;;;;;6.63;3.80;;;7.70;91.50;;;;;;6183255;23;20063;-73
2022/02/04 03:01:36;;;;;;;7.20;4.25;;;7.80;91.50;;;;;;6157055;23;20005;-73
2022/02/04 03:04:07;;;;;;;7.78;4.57;;;7.80;91.50;;;;;;6183467;23;20001;-72
2022/02/04 03:06:33;;;;;;;8.38;4.38;;;7.70;91.50;;;;;;6183750;23;20001;-73
2022/02/04 03:08:58;;;;;;;6.53;3.78;;;7.80;91.50;;;;;;6183695;23;20060;-73
2022/02/04 03:11:27;;;;;;;7.07;4.28;;;7.70;91.50;;;;;;6183470;23;20430;-73
2022/02/04 03:13:53;;;;;;;6.78;3.58;;;7.70;91.50;;;;;;6183560;23;20012;-73
2022/02/04 03:16:19;;;;;;;6.57;4.05;;;7.80;91.50;;;;;;6183817;23;20093;-72
2022/02/04 03:18:49;;;;;;;6.95;3.72;;;7.80;91.50;;;;;;6157082;23;20027;-72
2022/02/04 03:21:24;;;;;;;6.53;3.63;;;7.80;91.50;;;;;;6183728;23;20013;-73
2022/02/04 03:23:56;;;;;;;5.72;3.03;;;7.80;91.50;;;;;;6184058;23;20432;-72
2022/02/04 03:26:36;;;;;;;6.47;3.35;;;7.80;91.50;;;;;;6181054;23;20012;-72
2022/02/04 03:29:04;;;;;;;6.07;3.60;;;7.70;91.50;;;;;;6182255;23;20005;-73
2022/02/04 03:31:37;;;;;;;6.97;3.45;;;7.80;91.50;;;;;;6183402;23;20044;-73
2022/02/04 03:34:03;;;;;;;6.57;3.90;;;7.80;91.50;;;;;;6183769;23;20005;-73
2022/02/04 03:36:30;;;;;;;6.57;3.83;;;7.80;91.50;;;;;;6183613;23;20036;-73
2022/02/04 03:38:55;;;;;;;7.15;3.88;;;7.80;91.50;;;;;;6183211;23;20394;-72
2022/02/04 03:41:21;;;;;;;7.07;3.78;;;7.80;91.50;;;;;;6183067;23;20010;-73
2022/02/04 03:43:47;;;;;;;5.95;3.22;;;7.80;91.50;;;;;;6181364;23;20005;-73
2022/02/04 03:46:13;;;;;;;6.03;3.03;;;7.70;91.40;;;;;;6183086;23;19997;-72
2022/02/04 03:48:39;;;;;;;6.25;3.13;;;7.80;91.40;;;;;;6183332;23;20011;-72
2022/02/04 03:51:05;;;;;;;4.97;3.13;;;7.80;91.40;;;;;;6183414;23;20037;-72
2022/02/04 03:53:31;;;;;;;6.05;2.92;;;7.80;91.50;;;;;;6181677;23;20429;-73
2022/02/04 03:55:56;;;;;;;5.35;3.05;;;7.80;91.40;;;;;;6183121;23;20008;-72
2022/02/04 03:58:22;;;;;;;5.68;3.08;;;7.80;91.40;;;;;;6183193;23;20009;-73
2022/02/04 04:00:48;;;;;;;4.93;2.83;;;7.80;91.40;;;;;;6183070;23;20015;-72
2022/02/04 04:03:14;;;;;;;5.60;3.05;;;7.80;91.40;;;;;;6183186;23;20055;-73
2022/02/04 04:05:46;;;;;;;4.80;2.80;;;7.80;91.40;;;;;;6183197;23;20421;-73
2022/02/04 04:08:13;;;;;;;4.65;2.63;;;7.80;91.40;;;;;;6183058;23;20002;-72
2022/02/04 04:10:41;;;;;;;4.70;2.78;;;7.80;91.40;;;;;;6183066;23;20369;-72
2022/02/04 04:13:08;;;;;;;4.65;2.60;;;7.80;91.40;;;;;;6182606;23;20007;-73
2022/02/04 04:15:34;;;;;;;5.43;3.05;;;7.80;91.40;;;;;;6184596;23;20444;-73
2022/02/04 04:18:01;;;;;;;5.78;3.25;;;7.80;91.40;;;;;;6184187;23;20434;-73
2022/02/04 04:20:28;;;;;;;6.32;3.15;;;7.80;91.40;;;;;;6180082;23;19997;-73
2022/02/04 04:22:55;;;;;;;4.88;2.58;;;7.80;91.40;;;;;;6184147;23;20024;-73
2022/02/04 04:25:22;;;;;;;4.68;2.60;;;7.80;91.40;;;;;;6184448;23;20006;-73
2022/02/04 04:27:49;;;;;;;5.60;3.17;;;7.80;91.40;;;;;;6184856;23;20325;-73
2022/02/04 04:30:16;;;;;;;4.65;2.67;;;7.80;91.40;;;;;;6184573;23;20006;-73
2022/02/04 04:32:43;;;;;;;4.80;2.72;;;7.90;91.40;;;;;;6184588;23;20448;-73
2022/02/04 04:35:11;;;;;;;4.55;2.58;;;7.80;91.40;;;;;;6184677;23;20005;-73
2022/02/04 04:37:44;;;;;;;4.63;2.45;;;7.80;91.40;;;;;;6184144;23;20021;-72
2022/02/04 04:43:11;;;;;;;5.85;2.95;;;7.80;91.40;;;;;;6182782;23;20005;-73
2022/02/04 04:45:57;;;;;;;5.23;2.93;;;7.90;91.30;;;;;;6184802;23;20004;-73
2022/02/04 05:26:15;;;;;;;4.43;2.40;;;7.80;91.20;;;;;;6183828;23;20005;-73
2022/02/04 05:28:55;;;;;;;4.80;2.75;;;7.90;91.20;;;;;;6158096;23;20001;-73
2022/02/04 05:31:21;;;;;;;4.60;2.45;;;7.90;91.20;;;;;;6158106;23;20456;-73
2022/02/04 05:33:48;;;;;;;5.22;2.50;;;7.80;91.10;;;;;;6181380;23;20009;-72
2022/02/04 05:36:15;;;;;;;3.75;2.00;;;7.90;91.20;;;;;;6157896;23;20005;-73
2022/02/04 05:38:41;;;;;;;3.95;2.20;;;7.80;91.10;;;;;;6184467;23;20017;-72
2022/02/04 05:41:09;;;;;;;4.05;2.00;;;7.90;91.10;;;;;;6184990;23;20345;-72
2022/02/04 05:43:37;;;;;;;3.80;2.17;;;7.90;91.10;;;;;;6183271;23;20004;-73
2022/02/04 05:46:10;;;;;;;3.92;2.10;;;7.90;91.10;;;;;;6184790;23;20029;-73
2022/02/04 05:48:38;;;;;;;3.75;1.98;;;7.90;91.10;;;;;;6184554;23;20457;-72
2022/02/04 05:53:59;;;;;;;3.60;2.00;;;7.90;91.10;;;;;;6184240;23;20345;-72
2022/02/04 05:56:36;;;;;;;3.53;2.15;;;7.90;91.10;;;;;;6184478;23;20386;-73
2022/02/04 05:59:23;;;;;;;4.22;1.70;;;8.00;91.10;;;;;;6184073;23;20337;-73
2022/02/04 06:02:00;;;;;;;3.00;1.60;;;7.90;91.10;;;;;;6183109;23;20013;-73
2022/02/04 06:04:37;;;;;;;4.05;1.75;;;7.80;91.10;;;;;;6182805;23;20008;-73
2022/02/04 06:22:07;;;;;;;3.40;1.38;;;7.80;91.10;;;;;;6183560;23;20040;-72
2022/02/04 06:23:18;;;;;;;3.05;1.63;;;7.80;91.00;;;;;;6180299;23;20116;-72
2022/02/04 06:25:44;;;;;;;3.72;1.70;;;7.90;91.00;;;;;;6184509;23;19997;-72
2022/02/04 06:28:12;;;;;;;3.17;1.58;;;7.90;91.30;;;;;;6184187;23;20063;-73
2022/02/04 06:30:39;;;;;;;2.78;1.70;;;7.80;91.00;;;;;;6184648;23;20020;-73
2022/02/04 06:33:05;;;;;;;3.33;1.50;;;7.80;91.00;;;;;;6181377;23;20378;-72
2022/02/04 06:35:31;;;;;;;3.15;1.77;;;7.90;91.00;;;;;;6184684;23;20031;-72
2022/02/04 06:37:58;;;;;;;2.85;1.65;;;7.80;91.00;;;;;;6184402;23;20095;-72
2022/02/04 06:40:23;;;;;;;3.42;1.30;;;7.90;91.00;;;;;;6184513;23;20440;-72
2022/02/04 06:42:49;;;;;;;2.60;1.55;;;7.90;91.00;;;;;;6156128;23;20041;-72
2022/02/04 06:45:15;;;;;;;3.75;1.90;;;7.90;91.00;;;;;;6180653;23;20021;-72
2022/02/04 06:47:43;;;;;;;2.40;1.58;;;7.90;91.00;;;;;;6184100;23;20059;-72
2022/02/04 06:50:09;;;;;;;3.25;1.48;;;7.90;91.00;;;;;;6157963;23;20112;-73
2022/02/04 06:52:35;;;;;;;3.25;1.73;;;7.90;91.00;;;;;;6184429;23;20068;-72
2022/02/04 06:55:00;;;;;;;3.05;1.60;;;7.90;90.90;;;;;;6184442;23;20005;-72
2022/02/04 06:57:26;;;;;;;3.13;1.70;;;7.90;90.90;;;;;;6184235;23;20024;-72
2022/02/04 06:59:53;;;;;;;2.28;1.50;;;7.90;90.90;;;;;;6183393;23;20029;-72
2022/02/04 07:02:21;;;;;;;3.00;1.75;;;8.00;90.90;;;;;;6184250;23;20052;-72
2022/02/04 07:04:47;;;;;;;3.75;1.58;;;7.90;90.90;;;;;;6181685;23;20001;-72
2022/02/04 07:07:13;;;;;;;2.92;1.60;;;8.10;90.90;;;;;;6183680;23;20354;-73
2022/02/04 07:09:51;;;;;;;2.63;1.55;;;8.00;90.90;;;;;;6183843;23;20315;-72
2022/02/04 07:12:23;;;;;;;4.30;2.00;;;8.00;90.90;;;;;;6183750;23;20008;-73
2022/02/04 07:15:22;;;;;;;3.53;1.80;;;8.00;90.80;;;;;;6176701;23;20308;-72
2022/02/04 07:17:54;;;;;;;3.85;1.90;;;8.00;90.80;;;;;;6182934;23;20373;-72
2022/02/04 07:20:20;;;;;;;2.85;1.80;;;8.00;90.80;;;;;;6176975;23;20021;-73
2022/02/04 07:22:46;;;;;;;3.55;1.98;;;8.10;90.80;;;;;;6183596;23;20047;-73
2022/02/04 07:25:11;;;;;;;6.03;1.70;;;8.10;90.70;;;;;;6182188;23;19993;-73
2022/02/04 07:27:39;;;;;;;4.22;2.10;;;8.10;90.70;;;;;;6183954;23;20032;-73
2022/02/04 07:30:05;;;;;;;3.00;1.92;;;8.10;90.70;;;;;;6183866;23;20060;-73
2022/02/04 07:32:37;;;;;;;3.83;2.05;;;8.10;90.70;;;;;;6181702;23;20001;-73
2022/02/04 07:43:08;;;;;;;4.40;2.05;;;8.10;90.70;;;;;;6183338;23;20016;-73
2022/02/04 07:45:35;;;;;;;3.80;2.00;;;8.10;90.70;;;;;;6183716;23;20005;-72
2022/02/04 07:48:01;;;;;;;3.60;2.17;;;8.10;90.70;;;;;;6184379;23;20009;-73
2022/02/04 07:50:27;;;;;;;3.88;2.17;;;8.10;90.70;;;;;;6184203;23;20028;-74
2022/02/04 07:52:54;;;;;;;3.70;2.30;;;8.20;90.70;;;;;;6180221;23;20429;-73
2022/02/04 07:55:22;;;;;;;4.38;2.30;;;8.10;90.70;;;;;;6185045;23;20080;-73
2022/02/04 07:57:48;;;;;;;3.90;2.15;;;8.10;90.70;;;;;;6185045;23;20024;-73
2022/02/04 08:00:16;;;;;;;3.72;2.17;;;8.10;90.70;;;;;;6184939;23;20005;-73
2022/02/04 08:02:44;;;;;;;2.17;1.60;;;8.10;90.70;;;;;;6184960;23;20016;-73
2022/02/04 08:05:14;;;;;;;3.78;2.20;;;8.10;90.80;;;;;;6185020;23;20032;-73
2022/02/04 08:07:51;;;;;;;3.08;2.00;;;8.10;90.80;;;;;;6184390;23;20310;-73
2022/02/04 08:18:43;;;;;;;3.92;2.50;;;8.10;90.80;;;;;;6182971;23;20365;-73
2022/02/04 08:21:20;;;;;;;3.85;2.42;;;8.10;90.80;;;;;;6178257;23;20068;-73
2022/02/04 08:29:18;;;;;;;3.70;2.15;;;8.10;90.90;;;;;;6184218;23;20393;-73
2022/02/04 08:32:02;;;;;;;4.20;2.40;;;8.10;90.90;;;;;;6180997;23;20433;-73
2022/02/04 08:37:35;;;;;;;4.88;2.90;;;8.10;90.90;;;;;;6184174;23;20307;-73
2022/02/04 08:48:11;;;;;;;4.80;2.80;;;8.10;90.90;;;;;;6182954;23;20009;-73
2022/02/04 08:50:56;;;;;;;3.88;2.38;;;8.10;90.90;;;;;;6184001;23;20919;-73
2022/02/04 08:56:06;;;;;;;5.28;3.00;;;8.10;90.90;;;;;;6184018;23;20032;-73
2022/02/04 08:58:38;;;;;;;4.75;2.80;;;8.20;90.90;;;;;;6184387;23;20024;-73
2022/02/04 09:01:25;;;;;;;4.63;2.47;;;8.20;90.90;;;;;;6183999;23;20001;-74
2022/02/04 09:04:02;;;;;;;3.90;2.40;;;8.20;90.80;;;;;;6182564;23;20005;-73
2022/02/04 09:06:35;;;;;;;3.97;2.72;;;8.30;90.80;;;;;;6152919;23;20084;-73
2022/02/04 09:09:01;;;;;;;3.88;2.55;;;8.30;90.80;;;;;;6184116;23;20009;-73
2022/02/04 09:11:40;;;;;;;4.10;2.58;;;8.30;90.80;;;;;;6183815;23;20005;-73
2022/02/04 09:19:29;;;;;;;4.68;2.85;;;8.50;90.70;;;;;;6183890;23;20099;-73
2022/02/04 09:22:17;;;;;;;4.25;2.50;;;8.50;90.70;;;;;;6182459;23;20004;-73
2022/02/04 09:24:40;;;;;;;4.93;3.10;;;8.50;90.70;;;;;;6181705;23;20017;-73
2022/02/04 09:27:08;;;;;;;4.50;3.00;;;8.50;90.70;;;;;;6183761;23;20001;-73
2022/02/04 09:29:34;;;;;;;5.25;3.15;;;8.50;90.70;;;;;;6184434;23;20063;-73
2022/02/04 09:32:00;;;;;;;4.85;2.78;;;8.50;90.70;;;;;;6183898;23;20009;-73
2022/02/04 09:34:25;;;;;;;4.60;3.08;;;8.50;90.70;;;;;;6182274;23;20013;-73
2022/02/04 09:36:51;;;;;;;4.10;2.67;;;8.40;90.70;;;;;;6183950;23;20012;-73
2022/02/04 09:39:17;;;;;;;5.60;3.05;;;8.40;90.80;;;;;;6183728;23;20334;-73
2022/02/04 09:41:43;;;;;;;4.80;2.63;;;8.40;90.90;;;;;;6184352;23;20428;-73
2022/02/04 09:44:09;;;;;;;4.43;2.70;;;8.40;91.00;;;;;;6183411;23;20085;-73
2022/02/04 09:46:36;;;;;;;4.50;2.72;;;8.40;91.10;;;;;;6182360;23;20076;-73
2022/02/04 09:49:04;;;;;;;5.07;3.00;;;8.40;91.10;;;;;;6183903;23;20005;-73
2022/02/04 09:51:48;;;;;;;6.00;3.10;;;8.40;91.10;;;;;;6181378;23;20008;-73
2022/02/04 10:06:26;;;;;;;5.28;3.03;;;8.40;91.10;;;;;;6183825;23;20014;-74
2022/02/04 10:08:05;;;;;;;4.68;2.90;;;8.50;91.10;;;;;;6182223;23;20063;-73
2022/02/04 10:10:49;;;;;;;5.32;3.10;;;8.60;91.10;;;;;;6183780;23;20016;-74
2022/02/04 10:13:33;;;;;;;4.82;3.15;;;8.60;91.00;;;;;;6184166;23;20021;-75
2022/02/04 10:16:23;;;;;;;4.45;2.80;;;8.60;91.00;;;;;;6184570;23;20326;-75
2022/02/04 10:19:04;;;;;;;5.00;2.85;;;8.70;91.00;;;;;;6181563;23;20014;-73
2022/02/04 10:21:29;;;;;;;4.82;2.88;;;8.70;91.00;;;;;;6184259;23;20342;-73
2022/02/04 10:23:58;;;;;;;5.00;2.70;;;8.80;91.00;;;;;;6183581;23;20005;-72
2022/02/04 10:26:25;;;;;;;5.80;2.78;;;8.80;90.90;;;;;;6183924;23;20001;-74
2022/02/04 10:28:52;;;;;;;4.53;2.90;;;8.90;90.90;;;;;;6184011;23;20005;-75
2022/02/04 10:31:27;;;;;;;3.50;2.30;;;8.90;90.80;;;;;;6181362;23;20013;-75
2022/02/04 10:34:01;;;;;;;3.90;2.60;;;8.80;90.80;;;;;;6183733;23;20009;-75
2022/02/04 10:36:39;;;;;;;4.03;2.63;;;8.80;90.90;;;;;;6183866;23;20008;-75
2022/02/04 10:39:24;;;;;;;3.30;2.40;;;8.70;90.90;;;;;;6183593;23;20397;-75
2022/02/04 10:42:39;;;;;;;2.92;2.28;;;8.70;91.00;;;;;;6183467;23;20001;-75
2022/02/04 10:47:57;;;;;;;4.22;2.30;;;8.60;91.10;;;;;;6183282;23;20344;-75
2022/02/04 10:53:49;;;;;;;3.30;2.20;;;8.70;91.20;;;;;;6182358;23;20009;-73
2022/02/04 10:56:40;;;;;;;2.67;1.77;;;8.70;91.20;;;;;;6183352;23;20005;-73
2022/02/04 11:04:43;;;;;;;3.55;2.30;;;8.70;91.20;;;;;;6183624;23;20437;-73
2022/02/04 11:31:30;;;;;;;3.08;2.10;;;9.00;91.00;;;;;;6180853;23;20013;-73
2022/02/04 11:34:22;;;;;;;3.33;2.17;;;9.00;90.90;;;;;;6182294;23;20051;-73
2022/02/04 11:49:23;;;;;;;2.47;1.77;;;9.30;90.70;;;;;;6182884;23;20014;-73
2022/02/04 11:51:39;;;;;;;2.58;1.60;;;9.30;90.70;;;;;;6181959;23;20315;-73
2022/02/04 11:54:30;;;;;;;2.35;1.60;;;9.30;90.70;;;;;;6183387;23;20001;-73
2022/02/04 11:57:16;;;;;;;2.40;1.73;;;9.40;90.70;;;;;;6155937;23;20334;-72
2022/02/04 11:59:44;;;;;;;2.63;1.70;;;9.40;90.60;;;;;;6178618;23;20018;-73
2022/02/04 12:02:33;;;;;;;3.13;1.95;;;9.50;90.60;;;;;;6181686;23;20016;-73
2022/02/04 12:05:27;;;;;;;2.85;1.73;;;9.50;90.50;;;;;;6183578;23;20072;-73
2022/02/04 12:08:16;;;;;;;2.88;1.75;;;9.50;90.40;;;;;;6181735;23;20005;-73
2022/02/04 12:10:44;;;;;;;2.45;1.60;;;9.40;90.40;;;;;;6182598;23;20013;-73
2022/02/04 12:13:10;;;;;;;2.60;1.85;;;9.40;90.50;;;;;;6183377;23;20059;-73
2022/02/04 12:15:42;;;;;;;2.78;1.70;;;9.50;90.40;;;;;;6183585;23;20318;-73
2022/02/04 12:18:11;;;;;;;3.13;1.90;;;9.40;90.40;;;;;;6156427;23;20033;-73
2022/02/04 12:20:54;;;;;;;3.38;2.15;;;9.40;90.30;;;;;;6181328;23;20004;-73
2022/02/04 12:23:43;;;;;;;3.70;2.22;;;9.40;90.30;;;;;;6183150;23;19997;-74
2022/02/04 12:26:29;;;;;;;3.10;2.10;;;9.40;90.30;;;;;;6176208;23;20005;-73
2022/02/04 12:29:01;;;;;;;3.28;2.10;;;9.40;90.20;;;;;;6182699;23;20005;-73
2022/02/04 12:31:30;;;;;;;3.53;2.10;;;9.40;90.20;;;;;;6179131;23;20040;-71
2022/02/04 12:34:07;;;;;;;3.55;2.03;;;9.40;90.20;;;;;;6182832;23;19998;-73
2022/02/04 12:36:37;;;;;;;3.45;1.80;;;9.40;90.20;;;;;;6179618;23;20005;-73
2022/02/04 12:39:09;;;;;;;3.80;2.30;;;9.30;90.10;;;;;;6184070;23;20009;-73
2022/02/04 12:41:50;;;;;;;3.38;2.20;;;9.30;90.10;;;;;;6184260;23;20004;-73
2022/02/04 12:44:18;;;;;;;3.03;2.03;;;9.30;90.10;;;;;;6181832;23;20012;-73
2022/02/04 12:46:48;;;;;;;3.10;1.80;;;9.20;90.00;;;;;;6184391;23;20055;-74
2022/02/04 12:49:17;;;;;;;3.15;2.00;;;9.30;90.00;;;;;;6182940;23;20009;-73
2022/02/04 12:51:52;;;;;;;2.80;2.00;;;9.20;90.00;;;;;;6182348;23;20009;-74
2022/02/04 12:54:39;;;;;;;2.33;1.75;;;9.30;90.00;;;;;;6182490;23;20028;-74
2022/02/04 13:00:19;;;;;;;3.90;1.98;;;9.20;90.00;;;;;;6182729;23;20479;-72
2022/02/04 13:08:24;;;;;;;3.33;2.03;;;9.20;89.70;;;;;;6183428;23;20020;-72
2022/02/04 13:11:00;;;;;;;4.05;2.00;;;9.20;89.60;;;;;;6182348;23;20004;-72
2022/02/04 13:13:30;;;;;;;3.00;1.85;;;9.20;89.50;;;;;;6182951;23;21124;-72
2022/02/04 13:15:56;;;;;;;2.30;1.50;;;9.20;89.50;;;;;;6184168;23;20004;-73
2022/02/04 13:18:23;;;;;;;2.90;1.80;;;9.20;89.40;;;;;;6183572;23;20017;-73
2022/02/04 13:20:54;;;;;;;2.63;1.73;;;9.20;89.40;;;;;;6183843;23;20004;-73
2022/02/04 13:23:23;;;;;;;3.70;1.83;;;9.20;89.30;;;;;;6183109;23;20059;-74
2022/02/04 13:25:51;;;;;;;2.55;1.50;;;9.20;89.30;;;;;;6184364;23;20016;-73
2022/02/04 13:28:27;;;;;;;2.22;1.60;;;9.20;89.20;;;;;;6184121;23;20329;-74
2022/02/04 13:31:00;;;;;;;2.97;1.83;;;9.20;89.10;;;;;;6184081;23;20001;-74
2022/02/04 13:33:31;;;;;;;2.53;1.60;;;9.20;89.00;;;;;;6181386;23;20009;-74
2022/02/04 13:36:03;;;;;;;;;;;9.20;89.00;;;;;;6184503;23;20005;-74
2022/02/04 13:38:46;;;;;;;2.15;1.60;;;9.20;89.00;;;;;;6183606;23;19923;-74
2022/02/04 13:41:28;;;;;;;2.13;1.60;;;9.10;89.00;;;;;;6182623;23;20064;-74
2022/02/04 13:44:25;;;;;;;2.38;1.60;;;9.10;89.00;;;;;;6160001;23;20024;-74
2022/02/04 13:47:03;;;;;;;2.10;1.42;;;9.00;89.10;;;;;;6183510;23;20005;-74
2022/02/04 13:52:15;;;;;;;3.03;1.60;;;9.00;89.30;;;;;;6183988;23;20814;-73
2022/02/04 13:55:03;;;;;;;2.78;1.70;;;8.90;89.30;;;;;;6184227;23;20024;-73
2022/02/04 13:57:32;;;;;;;2.78;1.77;;;8.80;89.40;;;;;;6183790;23;20027;-74
2022/02/04 14:00:28;;;;;;;3.28;1.70;;;8.70;89.60;;;;;;6182428;23;20104;-74
2022/02/04 14:03:09;;;;;;;2.47;1.58;;;8.70;89.80;;;;;;6184408;23;20021;-74
2022/02/04 14:05:47;;;;;;;2.92;1.90;;;8.60;90.00;;;;;;6183003;23;20024;-74
2022/02/04 14:08:17;;;;;;;3.45;2.08;;;8.60;90.00;;;;;;6180179;23;20028;-73
2022/02/04 14:10:54;;;;;;;3.40;1.80;;;8.50;90.10;;;;;;6184202;23;20001;-73
2022/02/04 14:13:23;;;;;;;3.72;2.00;;;8.50;90.20;;;;;;6183637;23;20092;-73
2022/02/04 14:15:54;;;;;;;3.28;2.08;;;8.40;90.20;;;;;;6184200;23;20467;-73
2022/02/04 14:18:20;;;;;;;2.88;1.90;;;8.40;90.30;;;;;;6182358;23;20040;-73
2022/02/04 14:20:47;;;;;;;3.53;1.95;;;8.40;90.30;;;;;;6182289;23;20004;-74
2022/02/04 14:23:14;;;;;;;3.90;2.10;;;8.30;90.30;;;;;;6183528;23;20001;-74
2022/02/04 14:25:46;;;;;;;2.70;1.85;;;8.30;90.40;;;;;;6183409;23;20650;-74
2022/02/04 14:28:15;;;;;;;2.75;1.80;;;8.20;90.40;;;;;;6183461;23;20001;-73
2022/02/04 14:30:41;;;;;;;4.53;2.28;;;8.20;90.50;;;;;;6183470;23;20013;-74
2022/02/04 14:33:16;;;;;;;4.50;2.45;;;8.20;90.50;;;;;;6181985;23;20028;-74
2022/02/04 14:52:20;;;;;;;4.40;2.60;;;8.00;90.70;;;;;;6183317;23;20013;-74
2022/02/04 15:02:45;;;;;;;1.30;0.88;;;7.00;91.40;;;;;;6180552;23;20345;-74
2022/02/04 15:05:16;;;;;;;0.95;0.60;;;6.80;91.20;;;;;;6183439;23;20001;-74
2022/02/04 15:07:43;;;;;;;0.30;0.30;;;6.50;91.50;;;;;;6183354;23;20306;-74
2022/02/04 15:10:14;;;;;;;0.57;0.47;;;6.20;91.60;;;;;;6183333;23;20463;-74
2022/02/04 15:12:40;;;;;;;0.20;0.20;;;6.00;91.80;;;;;;6183443;23;20096;-74
2022/02/04 15:15:06;;;;;;;0.20;0.20;;;5.80;91.90;;;;;;6182945;23;19997;-74
2022/02/04 15:17:32;;;;;;;0.85;0.35;;;5.60;92.00;;;;;;6183913;23;20001;-74
2022/02/04 15:19:58;;;;;;;0.22;0.20;;;5.40;92.00;;;;;;6180710;23;20006;-74
2022/02/04 15:22:26;;;;;;;0.20;0.20;;;5.30;92.10;;;;;;6183376;23;20508;-74
2022/02/04 15:24:57;;;;;;;0.30;0.20;;;5.10;92.20;;;;;;6184252;23;20051;-74
2022/02/04 15:27:23;;;;;;;0.10;0.10;;;5.10;92.30;;;;;;6183619;23;19998;-74
2022/02/04 15:29:52;;;;;;;0.10;0.10;;;5.00;92.20;;;;;;6181893;23;20006;-74
2022/02/04 15:32:17;;;;;;;0.68;0.17;;;4.90;92.20;;;;;;6184083;23;20005;-73
2022/02/04 15:34:43;;;;;;;0.10;0.10;;;4.90;92.30;;;;;;6183568;23;20449;-73
2022/02/04 15:37:09;;;;;;;0.32;0.32;;;4.90;92.30;;;;;;6183606;23;20005;-73
2022/02/04 15:39:35;;;;;;;0.10;0.10;;;4.80;92.20;;;;;;6181963;23;20016;-73
2022/02/04 15:42:07;;;;;;;0.35;0.20;;;4.80;92.10;;;;;;6183773;23;20019;-73
2022/02/04 15:44:38;;;;;;;0.22;0.22;;;4.70;92.20;;;;;;6180834;23;20017;-73
2022/02/04 15:50:00;;;;;;;0.25;0.25;;;4.70;92.20;;;;;;6183052;23;20013;-73
2022/02/04 15:52:52;;;;;;;0.20;0.20;;;4.70;92.10;;;;;;6183060;23;20080;-72
2022/02/04 15:55:31;;;;;;;1.35;0.40;;;4.70;92.10;;;;;;6182976;23;20919;-73
2022/02/04 15:58:16;;;;;;;0.70;0.43;;;4.70;92.10;;;;;;6182501;23;20021;-73
2022/02/04 16:03:40;;;;;;;0.30;0.30;;;4.70;92.10;;;;;;6182966;23;20005;-73
2022/02/04 16:06:09;;;;;;;0.20;0.20;;;4.70;92.00;;;;;;6183362;23;20075;-72
2022/02/04 16:08:35;;;;;;;0.32;0.30;;;4.70;92.00;;;;;;6183121;23;20040;-72
2022/02/04 16:11:08;;;;;;;0.35;0.35;;;4.80;92.00;;;;;;6182825;23;20001;-72
2022/02/04 16:13:42;;;;;;;0.40;0.40;;;4.70;91.90;;;;;;6184423;23;20029;-72
2022/02/04 16:16:22;;;;;;;0.50;0.40;;;4.80;91.90;;;;;;6158147;23;20001;-71
2022/02/04 16:21:39;;;;;;;1.77;0.40;;;4.70;91.90;;;;;;6182868;23;20012;-73
2022/02/04 16:24:34;;;;;;;0.75;0.50;;;4.80;91.90;;;;;;6180003;23;20009;-72
2022/02/04 16:26:57;;;;;;;0.95;0.60;;;4.80;91.80;;;;;;6184102;23;20386;-72
2022/02/04 16:29:22;;;;;;;;;;;4.80;91.80;;;;;;6183221;23;20027;-74
2022/02/04 16:31:49;;;;;;;0.50;0.50;;;4.70;91.80;;;;;;6182772;23;20309;-74
2022/02/04 16:34:15;;;;;;;0.55;0.30;;;4.70;91.80;;;;;;6180544;23;20001;-74
2022/02/04 16:36:44;;;;;;;1.15;0.30;;;4.70;91.80;;;;;;6184750;23;20054;-72
2022/02/04 16:39:13;;;;;;;0.40;0.40;;;4.70;91.80;;;;;;6181645;23;20009;-74
2022/02/04 16:44:19;;;;;;;0.70;0.60;;;4.70;91.80;;;;;;6183544;23;20088;-74
2022/02/04 16:46:46;;;;;;;0.55;0.40;;;4.70;91.80;;;;;;6180440;23;20048;-74
2022/02/04 16:49:13;;;;;;;1.27;0.63;;;4.70;91.80;;;;;;6183406;23;20011;-73
2022/02/04 16:51:40;;;;;;;0.90;0.52;;;4.70;91.80;;;;;;6184433;23;20017;-72
2022/02/04 16:54:06;;;;;;;0.75;0.55;;;4.60;91.80;;;;;;6157498;23;20005;-73
2022/02/04 16:56:32;;;;;;;0.80;0.70;;;4.70;91.80;;;;;;6184871;23;20428;-74
2022/02/04 16:59:00;;;;;;;0.40;0.38;;;4.60;91.80;;;;;;6156012;23;20014;-73
2022/02/04 17:01:27;;;;;;;0.50;0.50;;;4.60;91.80;;;;;;6184351;23;19997;-73
2022/02/04 17:03:52;;;;;;;0.52;0.52;;;4.50;91.90;;;;;;6182823;23;20076;-73
2022/02/04 17:06:19;;;;;;;0.68;0.43;;;4.50;91.90;;;;;;6184747;23;19997;-73
2022/02/04 17:08:48;;;;;;;1.10;0.60;;;4.50;91.90;;;;;;6184383;23;20001;-73
2022/02/04 17:11:19;;;;;;;0.73;0.47;;;4.50;91.90;;;;;;6184677;23;20032;-73
2022/02/04 17:13:45;;;;;;;0.75;0.50;;;4.50;91.90;;;;;;6182642;23;19997;-73
2022/02/04 17:16:11;;;;;;;1.02;0.60;;;4.50;91.90;;;;;;6184008;23;20020;-73
2022/02/04 17:18:38;;;;;;;1.05;0.68;;;4.50;91.90;;;;;;6184114;23;20013;-73
2022/02/04 17:21:07;;;;;;;0.88;0.70;;;4.50;91.80;;;;;;6184190;23;19998;-73
2022/02/04 17:23:42;;;;;;;1.15;0.60;;;4.50;91.90;;;;;;6184240;23;20000;-73
2022/02/04 17:26:09;;;;;;;0.98;0.60;;;4.50;91.90;;;;;;6182095;23;20002;-74
2022/02/04 17:28:35;;;;;;;0.60;0.60;;;4.50;91.90;;;;;;6184364;23;20062;-73
2022/02/04 17:31:01;;;;;;;0.55;0.50;;;4.50;92.00;;;;;;6183112;23;20005;-74
2022/02/04 17:33:28;;;;;;;0.70;0.60;;;4.50;91.90;;;;;;6184248;23;20013;-72
2022/02/04 17:35:56;;;;;;;0.75;0.75;;;4.50;91.90;;;;;;6182384;23;20048;-71
2022/02/04 17:38:23;;;;;;;0.68;0.65;;;4.50;91.80;;;;;;6183839;23;20012;-71
2022/02/04 17:40:49;;;;;;;1.55;0.70;;;4.50;91.80;;;;;;6184336;23;19997;-71
2022/02/04 17:43:15;;;;;;;0.57;0.50;;;4.50;91.80;;;;;;6184185;23;20313;-72
2022/02/04 17:45:41;;;;;;;0.40;0.40;;;4.50;91.80;;;;;;6184128;23;20004;-72
2022/02/04 17:48:18;;;;;;;1.67;0.32;;;4.40;91.80;;;;;;6158026;23;20005;-72
2022/02/04 17:51:11;;;;;;;2.15;0.70;;;4.40;91.80;;;;;;6183632;23;20005;-71
2022/02/04 17:53:44;;;;;;;1.13;0.45;;;4.30;91.80;;;;;;6181652;23;20698;-72
2022/02/04 17:56:27;;;;;;;0.30;0.30;;;4.30;91.90;;;;;;6181950;23;20460;-72
2022/02/04 17:59:31;;;;;;;1.40;0.50;;;4.30;91.90;;;;;;6156189;23;20112;-72
2022/02/04 18:09:39;;;;;;;0.55;0.38;;;4.20;91.80;;;;;;6183673;23;20067;-72
2022/02/04 18:12:07;;;;;;;1.85;0.43;;;4.10;91.80;;;;;;6184341;23;20005;-72
2022/02/04 18:14:32;;;;;;;0.88;0.40;;;4.20;91.90;;;;;;6184250;23;20388;-71